• Join FlightAware (Why Join?)
  • Login
  • US Flag 
08:06PM EDT


 

Airport Tracker/Info


-or-


 

Live Flight TrackerFlight Track Log ✈ RPA3311 ✈ 22-Nov-2013 ✈ KPVD - KDCA

Flight Track Log - Related Links

Times and Time Zones

All times are in EST time to prevent confusion due to time zone crossing. See the RPA3311 flight status page for this flight to view local times or setup timezone preferences in your user account.

Time Position Orientation Groundspeed Altitude Reporting Facility
EST Latitude Longitude Course Direction KTS MPH feet Rate Location/Type
12:00PM 41.7053 -71.4428 270° West 135 155 1,100  Level Boston Center
12:01PM 41.7064 -71.4433 340° North 133 153 1,200 2,340 Climbing Boston Center
12:02PM 41.7278 -71.4997 297° West 203 234 3,700 2,700 Climbing Boston Center
12:03PM 41.5749 -71.7459 270° West  Level Estimated
12:03PM 41.7875 -71.5408 333° Northwest 249 287 6,800  Level Boston Center
12:04PM 41.6514 -71.8177 325° Northwest  Level FlightAware Approximate
12:04PM 41.8539 -71.5969 328° Northwest 268 308 9,900  Level Boston Center
12:05PM 41.5999 -71.9221 264° West  Level Estimated
12:05PM 41.8678 -71.6900 281° West 265 305 12,000  Level Boston Center
12:06PM 41.5483 -72.0263 270° West  Level Estimated
12:06PM 41.8761 -71.7928 276° West 278 320 14,200  Level Boston Center
12:07PM 41.8850 -71.9064 276° West 286 329 16,500 1,980 Climbing Boston Center
12:08PM 41.8931 -72.0206 275° West 296 341 18,300 1,620 Climbing Boston Center
12:09PM 41.9028 -72.1183 278° West 297 342 19,800 1,500 Climbing Boston Center
12:10PM 41.9108 -72.2319 275° West 304 350 21,400 1,440 Climbing Boston Center
12:11PM 41.9183 -72.3486 275° West 312 359 22,800 1,500 Climbing Boston Center
12:12PM 41.9267 -72.4661 275° West 315 362 24,500 1,560 Climbing Boston Center
12:13PM 41.9347 -72.5836 275° West 316 364 26,000 1,620 Climbing Boston Center
12:14PM 41.9119 -72.7272 258° West 365 420 27,900 1,560 Climbing Boston Center
12:15PM 41.8431 -72.8236 226° Southwest 372 428 29,300 960 Climbing Boston Center
12:16PM 41.7692 -72.9219 225° Southwest 375 432 29,900 300 Climbing Boston Center
12:17PM 41.6919 -73.0308 226° Southwest 397 457 30,000 -540 Climbing Boston Center
12:18PM 41.6133 -73.1389 226° Southwest 403 464 28,900 -1,020 Descending Boston Center
12:19PM 41.5294 -73.2497 225° Southwest 408 470 28,000 -480 Descending Boston Center
12:20PM 41.4506 -73.3553 225° Southwest 407 468 28,000  Level Boston Center
12:21PM 41.3719 -73.4603 225° Southwest 404 465 28,000  Level Boston Center
12:22PM 41.2928 -73.5661 225° Southwest 403 464 28,000 -660 Level Boston Center
12:23PM 41.2083 -73.7019 230° Southwest 400 460 26,700 -1,260 Descending Boston Center
12:24PM 41.1692 -73.7728 234° Southwest 398 458 26,000 -480 Descending New York Center
12:25PM 41.1039 -73.8800 231° Southwest 393 452 26,000  Level New York Center
12:26PM 41.0386 -73.9897 232° Southwest 388 447 26,000  Level New York Center
12:27PM 40.9753 -74.0967 232° Southwest 388 447 26,000  Level New York Center
12:28PM 40.9161 -74.1925 231° Southwest 388 447 26,000  Level New York Center
12:29PM 40.8483 -74.3017 231° Southwest 388 447 26,000  Level New York Center
12:30PM 40.7825 -74.4106 231° Southwest 388 447 26,000  Level New York Center
12:31PM 40.7167 -74.5219 232° Southwest 388 447 26,000  Level New York Center
12:32PM 40.6528 -74.6278 232° Southwest 388 447 26,000 -660 Level New York Center
12:33PM 40.5867 -74.7361 231° Southwest 388 447 24,700 -1,500 Descending New York Center
12:34PM 40.5186 -74.8361 228° Southwest 388 447 23,100 -1,620 Descending New York Center
12:35PM 40.4486 -74.9328 226° Southwest 383 441 21,500 -1,560 Descending New York Center
12:36PM 40.3761 -75.0347 227° Southwest 365 420 20,000 -780 Descending New York Center
12:37PM 40.3103 -75.1286 227° Southwest 359 413 20,000  Level New York Center
12:38PM 40.2464 -75.2197 227° Southwest 359 413 20,000  Level New York Center
12:39PM 40.1783 -75.3133 226° Southwest 359 413 20,000  Level New York Center
12:40PM 40.1142 -75.4042 227° Southwest 359 413 20,000  Level New York Center
12:41PM 40.0481 -75.4972 227° Southwest 359 413 20,000  Level New York Center
12:42PM 39.9817 -75.5875 226° Southwest 359 413 20,000 -420 Level New York Center
12:43PM 39.9175 -75.6778 227° Southwest 359 413 19,200 -1,440 Descending New York Center
12:44PM 39.8681 -75.7692 235° Southwest 332 382 17,200 -1,140 Descending New York Center
12:45PM 39.8203 -75.8575 235° Southwest 313 360 17,000 -780 Descending New York Center
12:46PM 39.7772 -75.9408 236° Southwest 300 345 15,700 -1,500 Descending New York Center
12:47PM 39.7314 -76.0294 236° Southwest 294 338 14,000 -900 Descending New York Center
12:48PM 39.7131 -76.1172 255° West 283 326 14,000  Level New York Center
12:49PM 39.6933 -76.2261 257° West 283 326 14,000  Level New York Center
12:50PM 39.6503 -76.3011 233° Southwest 283 326 14,000  Level New York Center
12:51PM 39.5958 -76.3911 232° Southwest 290 334 14,000  Level New York Center
12:52PM 39.5528 -76.4658 233° Southwest 290 334 14,000  Level New York Center
12:53PM 39.4925 -76.5469 226° Southwest 290 334 14,000 -960 Level New York Center
12:54PM 39.4000 -76.5833 197° South 304 350 12,000 -1,320 Descending Potomac TRACON
12:55PM 39.3167 -76.6167 197° South 276 318 11,100 -1,080 Descending Potomac TRACON
12:56PM 39.2500 -76.6333 191° South 278 320 10,000 -600 Descending Potomac TRACON
12:57PM 39.1667 -76.6667 197° South 278 320 10,000  Level Potomac TRACON
12:58PM 39.1167 -76.7333 226° Southwest 263 303 10,000 -300 Level Potomac TRACON
12:59PM 39.0667 -76.7833 218° Southwest 263 303 9,400 -1,200 Descending Potomac TRACON
01:00PM 39.0167 -76.8500 226° Southwest 258 297 7,600 -1,740 Descending Potomac TRACON
01:01PM 38.9667 -76.9167 226° Southwest 253 291 6,000 -840 Descending Potomac TRACON
01:02PM 38.9833 -77.0000 284° West 197 227 6,000 -300 Level Potomac TRACON
01:03PM 39.0000 -77.0667 288° West 198 228 5,400 -540 Descending Potomac TRACON
01:04PM 39.0333 -77.1000 322° Northwest 214 246 5,000 -720 Descending Potomac TRACON
01:05PM 39.0500 -77.1667 288° West 223 257 4,100 -900 Descending Potomac TRACON
01:06PM 39.0000 -77.1667 180° South 204 235 3,300 -900 Descending Potomac TRACON
01:07PM 38.9500 -77.1333 153° Southeast 180 207 2,300 -900 Descending Potomac TRACON
01:08PM 38.9167 -77.1000 142° Southeast 167 192 1,400 -840 Descending Potomac TRACON
01:09PM 38.9000 -77.0667 123° Southeast 145 167 800 -660 Descending Potomac TRACON
01:10PM 38.8667 -77.0333 142° Southeast 138 159 100 -660 Descending Potomac TRACON